sensor_id;sensor_type;location;lat;lon;timestamp;temperature;humidity
7700;DHT22;3892;47.794;19.126;2023-10-19T00:00:24;15.50;36.00
7700;DHT22;3892;47.794;19.126;2023-10-19T00:02:52;15.60;36.10
7700;DHT22;3892;47.794;19.126;2023-10-19T00:05:21;15.60;36.20
7700;DHT22;3892;47.794;19.126;2023-10-19T00:07:48;15.60;36.20
7700;DHT22;3892;47.794;19.126;2023-10-19T00:10:16;15.70;36.20
7700;DHT22;3892;47.794;19.126;2023-10-19T00:12:44;15.70;36.20
7700;DHT22;3892;47.794;19.126;2023-10-19T00:15:21;15.80;36.30
7700;DHT22;3892;47.794;19.126;2023-10-19T00:17:53;15.80;36.30
7700;DHT22;3892;47.794;19.126;2023-10-19T00:20:21;15.80;36.20
7700;DHT22;3892;47.794;19.126;2023-10-19T00:23:03;15.90;36.20
7700;DHT22;3892;47.794;19.126;2023-10-19T00:25:32;15.90;36.30
7700;DHT22;3892;47.794;19.126;2023-10-19T00:28:02;15.90;36.30
7700;DHT22;3892;47.794;19.126;2023-10-19T00:30:32;15.90;36.30
7700;DHT22;3892;47.794;19.126;2023-10-19T00:33:02;15.90;36.20
7700;DHT22;3892;47.794;19.126;2023-10-19T00:35:42;15.90;36.20
7700;DHT22;3892;47.794;19.126;2023-10-19T00:38:24;16.00;36.30
7700;DHT22;3892;47.794;19.126;2023-10-19T00:41:06;15.90;36.00
7700;DHT22;3892;47.794;19.126;2023-10-19T00:43:40;16.00;36.10
7700;DHT22;3892;47.794;19.126;2023-10-19T00:46:13;16.00;36.20
7700;DHT22;3892;47.794;19.126;2023-10-19T00:48:52;16.00;35.80
7700;DHT22;3892;47.794;19.126;2023-10-19T00:51:22;15.90;35.30
7700;DHT22;3892;47.794;19.126;2023-10-19T00:54:10;15.90;35.40
7700;DHT22;3892;47.794;19.126;2023-10-19T00:56:42;16.00;35.70
7700;DHT22;3892;47.794;19.126;2023-10-19T00:59:14;16.00;35.80
7700;DHT22;3892;47.794;19.126;2023-10-19T01:01:50;16.10;35.90
7700;DHT22;3892;47.794;19.126;2023-10-19T01:04:21;16.10;35.70
7700;DHT22;3892;47.794;19.126;2023-10-19T01:06:52;16.10;35.80
7700;DHT22;3892;47.794;19.126;2023-10-19T01:09:32;16.10;35.90
7700;DHT22;3892;47.794;19.126;2023-10-19T01:12:03;16.10;36.00
7700;DHT22;3892;47.794;19.126;2023-10-19T01:15:04;16.00;36.00
7700;DHT22;3892;47.794;19.126;2023-10-19T01:17:36;16.10;36.10
7700;DHT22;3892;47.794;19.126;2023-10-19T01:20:08;16.10;36.10
7700;DHT22;3892;47.794;19.126;2023-10-19T01:22:49;16.10;36.20
7700;DHT22;3892;47.794;19.126;2023-10-19T01:25:20;16.10;36.20
7700;DHT22;3892;47.794;19.126;2023-10-19T01:28:06;16.10;36.10
7700;DHT22;3892;47.794;19.126;2023-10-19T01:30:35;16.10;36.20
7700;DHT22;3892;47.794;19.126;2023-10-19T01:33:04;16.10;36.20
7700;DHT22;3892;47.794;19.126;2023-10-19T01:35:39;16.10;36.00
7700;DHT22;3892;47.794;19.126;2023-10-19T01:38:23;16.10;35.70
7700;DHT22;3892;47.794;19.126;2023-10-19T01:40:51;16.10;35.80
7700;DHT22;3892;47.794;19.126;2023-10-19T01:43:21;16.10;35.90
7700;DHT22;3892;47.794;19.126;2023-10-19T01:45:52;16.10;35.80
7700;DHT22;3892;47.794;19.126;2023-10-19T01:48:21;16.10;36.10
7700;DHT22;3892;47.794;19.126;2023-10-19T01:50:54;16.10;36.40
7700;DHT22;3892;47.794;19.126;2023-10-19T01:53:24;16.10;36.50
7700;DHT22;3892;47.794;19.126;2023-10-19T01:55:52;16.10;36.70
7700;DHT22;3892;47.794;19.126;2023-10-19T01:58:24;16.10;36.90
7700;DHT22;3892;47.794;19.126;2023-10-19T02:00:53;16.10;37.10
7700;DHT22;3892;47.794;19.126;2023-10-19T02:03:22;16.10;37.30
7700;DHT22;3892;47.794;19.126;2023-10-19T02:05:56;16.10;37.30
7700;DHT22;3892;47.794;19.126;2023-10-19T02:08:28;16.10;37.50
7700;DHT22;3892;47.794;19.126;2023-10-19T02:10:55;16.10;36.90
7700;DHT22;3892;47.794;19.126;2023-10-19T02:13:24;16.10;36.90
7700;DHT22;3892;47.794;19.126;2023-10-19T02:15:51;16.10;37.10
7700;DHT22;3892;47.794;19.126;2023-10-19T02:18:19;16.10;37.00
7700;DHT22;3892;47.794;19.126;2023-10-19T02:20:46;16.00;37.10
7700;DHT22;3892;47.794;19.126;2023-10-19T02:23:15;16.10;37.50
7700;DHT22;3892;47.794;19.126;2023-10-19T02:25:43;16.10;37.60
7700;DHT22;3892;47.794;19.126;2023-10-19T02:28:12;16.10;37.50
7700;DHT22;3892;47.794;19.126;2023-10-19T02:30:40;16.10;37.60
7700;DHT22;3892;47.794;19.126;2023-10-19T02:33:09;16.10;37.50
7700;DHT22;3892;47.794;19.126;2023-10-19T02:35:38;16.10;37.50
7700;DHT22;3892;47.794;19.126;2023-10-19T02:38:07;16.10;37.50
7700;DHT22;3892;47.794;19.126;2023-10-19T02:40:35;16.20;37.70
7700;DHT22;3892;47.794;19.126;2023-10-19T02:43:07;16.10;37.50
7700;DHT22;3892;47.794;19.126;2023-10-19T02:45:35;16.10;37.50
7700;DHT22;3892;47.794;19.126;2023-10-19T02:48:04;16.20;37.50
7700;DHT22;3892;47.794;19.126;2023-10-19T02:50:36;16.10;36.80
7700;DHT22;3892;47.794;19.126;2023-10-19T02:53:03;16.10;36.60
7700;DHT22;3892;47.794;19.126;2023-10-19T02:55:31;16.00;36.80
7700;DHT22;3892;47.794;19.126;2023-10-19T02:58:00;16.00;37.20
7700;DHT22;3892;47.794;19.126;2023-10-19T03:00:28;16.00;37.50
7700;DHT22;3892;47.794;19.126;2023-10-19T03:03:01;16.00;37.80
7700;DHT22;3892;47.794;19.126;2023-10-19T03:05:32;16.00;38.10
7700;DHT22;3892;47.794;19.126;2023-10-19T03:08:01;16.00;38.40
7700;DHT22;3892;47.794;19.126;2023-10-19T03:10:32;16.00;38.50
7700;DHT22;3892;47.794;19.126;2023-10-19T03:13:08;16.00;38.60
7700;DHT22;3892;47.794;19.126;2023-10-19T03:15:37;16.00;39.10
7700;DHT22;3892;47.794;19.126;2023-10-19T03:18:09;16.00;38.50
7700;DHT22;3892;47.794;19.126;2023-10-19T03:20:37;16.00;38.40
7700;DHT22;3892;47.794;19.126;2023-10-19T03:23:08;16.00;38.40
7700;DHT22;3892;47.794;19.126;2023-10-19T03:25:37;15.90;38.40
7700;DHT22;3892;47.794;19.126;2023-10-19T03:28:43;15.90;38.60
7700;DHT22;3892;47.794;19.126;2023-10-19T03:31:13;15.90;38.80
7700;DHT22;3892;47.794;19.126;2023-10-19T03:33:44;15.90;39.00
7700;DHT22;3892;47.794;19.126;2023-10-19T03:36:15;16.00;39.20
7700;DHT22;3892;47.794;19.126;2023-10-19T03:38:43;16.00;39.20
7700;DHT22;3892;47.794;19.126;2023-10-19T03:41:12;16.00;39.30
7700;DHT22;3892;47.794;19.126;2023-10-19T03:43:41;16.00;39.40
7700;DHT22;3892;47.794;19.126;2023-10-19T03:46:10;16.00;39.40
7700;DHT22;3892;47.794;19.126;2023-10-19T03:48:50;16.00;39.40
7700;DHT22;3892;47.794;19.126;2023-10-19T03:51:18;16.00;39.40
7700;DHT22;3892;47.794;19.126;2023-10-19T03:53:51;16.00;39.30
7700;DHT22;3892;47.794;19.126;2023-10-19T03:56:28;16.00;39.20
7700;DHT22;3892;47.794;19.126;2023-10-19T03:58:59;16.00;39.40
7700;DHT22;3892;47.794;19.126;2023-10-19T04:01:28;16.10;39.30
7700;DHT22;3892;47.794;19.126;2023-10-19T04:03:59;16.10;39.30
7700;DHT22;3892;47.794;19.126;2023-10-19T04:06:28;16.10;39.20
7700;DHT22;3892;47.794;19.126;2023-10-19T04:08:56;16.00;39.00
7700;DHT22;3892;47.794;19.126;2023-10-19T04:11:24;16.00;39.10
7700;DHT22;3892;47.794;19.126;2023-10-19T04:13:59;16.00;39.20
7700;DHT22;3892;47.794;19.126;2023-10-19T04:16:30;16.00;39.40
7700;DHT22;3892;47.794;19.126;2023-10-19T04:19:04;16.00;39.60
7700;DHT22;3892;47.794;19.126;2023-10-19T04:21:32;16.10;39.80
7700;DHT22;3892;47.794;19.126;2023-10-19T04:24:05;16.10;40.50
7700;DHT22;3892;47.794;19.126;2023-10-19T04:26:34;16.00;39.80
7700;DHT22;3892;47.794;19.126;2023-10-19T04:29:04;16.00;40.00
7700;DHT22;3892;47.794;19.126;2023-10-19T04:31:37;16.00;40.70
7700;DHT22;3892;47.794;19.126;2023-10-19T04:34:17;15.90;40.00
7700;DHT22;3892;47.794;19.126;2023-10-19T04:36:47;16.00;40.10
7700;DHT22;3892;47.794;19.126;2023-10-19T04:39:15;16.00;40.20
7700;DHT22;3892;47.794;19.126;2023-10-19T04:41:46;15.90;40.20
7700;DHT22;3892;47.794;19.126;2023-10-19T04:44:16;15.90;40.10
7700;DHT22;3892;47.794;19.126;2023-10-19T04:46:44;15.80;40.20
7700;DHT22;3892;47.794;19.126;2023-10-19T04:49:13;15.80;40.30
7700;DHT22;3892;47.794;19.126;2023-10-19T04:51:42;15.90;40.40
7700;DHT22;3892;47.794;19.126;2023-10-19T04:54:10;15.90;40.40
7700;DHT22;3892;47.794;19.126;2023-10-19T04:56:38;15.90;40.50
7700;DHT22;3892;47.794;19.126;2023-10-19T04:59:07;16.00;40.70
7700;DHT22;3892;47.794;19.126;2023-10-19T05:01:35;16.00;40.70
7700;DHT22;3892;47.794;19.126;2023-10-19T05:04:04;15.90;40.50
7700;DHT22;3892;47.794;19.126;2023-10-19T05:06:32;15.90;40.60
7700;DHT22;3892;47.794;19.126;2023-10-19T05:09:02;15.90;40.70
7700;DHT22;3892;47.794;19.126;2023-10-19T05:11:30;15.90;40.80
7700;DHT22;3892;47.794;19.126;2023-10-19T05:13:58;16.00;40.90
7700;DHT22;3892;47.794;19.126;2023-10-19T05:16:26;16.00;41.00
7700;DHT22;3892;47.794;19.126;2023-10-19T05:18:55;15.90;41.00
7700;DHT22;3892;47.794;19.126;2023-10-19T05:21:23;15.90;41.00
7700;DHT22;3892;47.794;19.126;2023-10-19T05:23:51;15.90;41.00
7700;DHT22;3892;47.794;19.126;2023-10-19T05:26:21;15.90;41.10
7700;DHT22;3892;47.794;19.126;2023-10-19T05:28:49;15.90;41.20
7700;DHT22;3892;47.794;19.126;2023-10-19T05:31:17;16.00;41.30
7700;DHT22;3892;47.794;19.126;2023-10-19T05:33:45;16.10;41.40
7700;DHT22;3892;47.794;19.126;2023-10-19T05:36:15;16.00;41.40
7700;DHT22;3892;47.794;19.126;2023-10-19T05:38:43;15.90;41.20
7700;DHT22;3892;47.794;19.126;2023-10-19T05:41:12;15.90;41.30
7700;DHT22;3892;47.794;19.126;2023-10-19T05:43:43;15.90;41.30
7700;DHT22;3892;47.794;19.126;2023-10-19T05:46:11;15.90;41.40
7700;DHT22;3892;47.794;19.126;2023-10-19T05:48:40;16.00;41.50
7700;DHT22;3892;47.794;19.126;2023-10-19T05:51:08;15.90;41.40
7700;DHT22;3892;47.794;19.126;2023-10-19T05:53:36;16.00;41.50
7700;DHT22;3892;47.794;19.126;2023-10-19T05:56:05;15.90;41.20
7700;DHT22;3892;47.794;19.126;2023-10-19T05:58:33;15.90;41.30
7700;DHT22;3892;47.794;19.126;2023-10-19T06:01:04;15.90;41.40
7700;DHT22;3892;47.794;19.126;2023-10-19T06:03:32;15.90;41.50
7700;DHT22;3892;47.794;19.126;2023-10-19T06:06:00;15.90;41.50
7700;DHT22;3892;47.794;19.126;2023-10-19T06:08:28;15.90;41.60
7700;DHT22;3892;47.794;19.126;2023-10-19T06:10:58;15.90;41.50
7700;DHT22;3892;47.794;19.126;2023-10-19T06:13:27;15.90;41.50
7700;DHT22;3892;47.794;19.126;2023-10-19T06:15:56;15.90;41.40
7700;DHT22;3892;47.794;19.126;2023-10-19T06:18:25;15.90;41.40
7700;DHT22;3892;47.794;19.126;2023-10-19T06:20:56;15.90;41.40
7700;DHT22;3892;47.794;19.126;2023-10-19T06:23:24;15.90;41.30
7700;DHT22;3892;47.794;19.126;2023-10-19T06:25:52;16.00;41.40
7700;DHT22;3892;47.794;19.126;2023-10-19T06:28:20;16.00;41.50
7700;DHT22;3892;47.794;19.126;2023-10-19T06:30:48;16.00;41.40
7700;DHT22;3892;47.794;19.126;2023-10-19T06:33:17;16.00;41.30
7700;DHT22;3892;47.794;19.126;2023-10-19T06:35:47;16.00;41.30
7700;DHT22;3892;47.794;19.126;2023-10-19T06:38:16;16.00;41.30
7700;DHT22;3892;47.794;19.126;2023-10-19T06:40:45;16.00;41.40
7700;DHT22;3892;47.794;19.126;2023-10-19T06:43:14;16.00;41.30
7700;DHT22;3892;47.794;19.126;2023-10-19T06:45:44;16.00;41.30
7700;DHT22;3892;47.794;19.126;2023-10-19T06:48:12;15.90;41.00
7700;DHT22;3892;47.794;19.126;2023-10-19T06:50:42;15.90;41.10
7700;DHT22;3892;47.794;19.126;2023-10-19T06:53:12;15.70;41.30
7700;DHT22;3892;47.794;19.126;2023-10-19T06:55:40;15.70;41.50
7700;DHT22;3892;47.794;19.126;2023-10-19T06:58:10;15.70;41.50
7700;DHT22;3892;47.794;19.126;2023-10-19T07:00:39;15.80;41.60
7700;DHT22;3892;47.794;19.126;2023-10-19T07:03:09;15.80;41.60
7700;DHT22;3892;47.794;19.126;2023-10-19T07:05:38;15.80;41.50
7700;DHT22;3892;47.794;19.126;2023-10-19T07:08:06;15.80;41.40
7700;DHT22;3892;47.794;19.126;2023-10-19T07:10:36;15.80;41.40
7700;DHT22;3892;47.794;19.126;2023-10-19T07:13:04;15.80;41.50
7700;DHT22;3892;47.794;19.126;2023-10-19T07:15:32;15.90;41.60
7700;DHT22;3892;47.794;19.126;2023-10-19T07:18:01;15.90;41.50
7700;DHT22;3892;47.794;19.126;2023-10-19T07:20:29;15.90;41.40
7700;DHT22;3892;47.794;19.126;2023-10-19T07:22:59;15.90;41.70
7700;DHT22;3892;47.794;19.126;2023-10-19T07:25:34;15.80;41.60
7700;DHT22;3892;47.794;19.126;2023-10-19T07:28:11;15.80;41.70
7700;DHT22;3892;47.794;19.126;2023-10-19T07:30:41;15.80;41.60
7700;DHT22;3892;47.794;19.126;2023-10-19T07:33:09;15.90;41.80
7700;DHT22;3892;47.794;19.126;2023-10-19T07:35:44;15.90;41.70
7700;DHT22;3892;47.794;19.126;2023-10-19T07:38:14;15.90;41.50
7700;DHT22;3892;47.794;19.126;2023-10-19T07:40:43;15.90;41.60
7700;DHT22;3892;47.794;19.126;2023-10-19T07:43:13;16.00;41.80
7700;DHT22;3892;47.794;19.126;2023-10-19T07:45:41;16.00;41.80
7700;DHT22;3892;47.794;19.126;2023-10-19T07:48:09;16.00;41.70
7700;DHT22;3892;47.794;19.126;2023-10-19T07:50:39;15.90;41.60
7700;DHT22;3892;47.794;19.126;2023-10-19T07:53:09;15.80;41.50
7700;DHT22;3892;47.794;19.126;2023-10-19T07:55:37;15.90;41.80
7700;DHT22;3892;47.794;19.126;2023-10-19T07:58:06;15.90;41.80
7700;DHT22;3892;47.794;19.126;2023-10-19T08:00:36;15.90;41.80
7700;DHT22;3892;47.794;19.126;2023-10-19T08:03:05;16.00;42.70
7700;DHT22;3892;47.794;19.126;2023-10-19T08:05:36;16.00;43.40
7700;DHT22;3892;47.794;19.126;2023-10-19T08:08:05;16.00;42.60
7700;DHT22;3892;47.794;19.126;2023-10-19T08:10:34;16.00;42.60
7700;DHT22;3892;47.794;19.126;2023-10-19T08:13:03;16.10;42.70
7700;DHT22;3892;47.794;19.126;2023-10-19T08:15:31;16.10;42.60
7700;DHT22;3892;47.794;19.126;2023-10-19T08:18:01;16.20;42.70
7700;DHT22;3892;47.794;19.126;2023-10-19T08:20:29;16.20;42.50
7700;DHT22;3892;47.794;19.126;2023-10-19T08:22:59;16.10;42.20
7700;DHT22;3892;47.794;19.126;2023-10-19T08:25:29;16.20;42.30
7700;DHT22;3892;47.794;19.126;2023-10-19T08:28:00;16.20;42.40
7700;DHT22;3892;47.794;19.126;2023-10-19T08:30:28;16.20;42.20
7700;DHT22;3892;47.794;19.126;2023-10-19T08:32:56;16.20;42.00
7700;DHT22;3892;47.794;19.126;2023-10-19T08:35:26;16.20;41.90
7700;DHT22;3892;47.794;19.126;2023-10-19T08:37:56;16.20;42.10
7700;DHT22;3892;47.794;19.126;2023-10-19T08:40:26;16.10;42.00
7700;DHT22;3892;47.794;19.126;2023-10-19T08:42:55;16.00;42.20
7700;DHT22;3892;47.794;19.126;2023-10-19T08:45:24;15.80;42.40
7700;DHT22;3892;47.794;19.126;2023-10-19T08:47:54;15.80;42.40
7700;DHT22;3892;47.794;19.126;2023-10-19T08:50:24;15.70;42.30
7700;DHT22;3892;47.794;19.126;2023-10-19T08:52:56;15.60;42.50
7700;DHT22;3892;47.794;19.126;2023-10-19T08:55:25;15.60;42.80
7700;DHT22;3892;47.794;19.126;2023-10-19T08:58:03;15.50;42.80
7700;DHT22;3892;47.794;19.126;2023-10-19T09:00:43;15.50;43.00
7700;DHT22;3892;47.794;19.126;2023-10-19T09:03:14;15.40;43.00
7700;DHT22;3892;47.794;19.126;2023-10-19T09:05:43;15.30;43.10
7700;DHT22;3892;47.794;19.126;2023-10-19T09:08:16;15.40;43.20
7700;DHT22;3892;47.794;19.126;2023-10-19T09:10:46;15.40;43.30
7700;DHT22;3892;47.794;19.126;2023-10-19T09:13:14;15.40;43.40
7700;DHT22;3892;47.794;19.126;2023-10-19T09:15:45;15.40;43.20
7700;DHT22;3892;47.794;19.126;2023-10-19T09:18:17;15.50;43.20
7700;DHT22;3892;47.794;19.126;2023-10-19T09:20:47;15.60;43.30
7700;DHT22;3892;47.794;19.126;2023-10-19T09:23:22;15.70;43.20
7700;DHT22;3892;47.794;19.126;2023-10-19T09:25:52;15.80;43.10
7700;DHT22;3892;47.794;19.126;2023-10-19T09:28:21;15.90;43.10
7700;DHT22;3892;47.794;19.126;2023-10-19T09:30:51;15.90;43.10
7700;DHT22;3892;47.794;19.126;2023-10-19T09:33:20;15.90;43.00
7700;DHT22;3892;47.794;19.126;2023-10-19T09:35:51;15.90;43.00
7700;DHT22;3892;47.794;19.126;2023-10-19T09:38:22;16.00;43.00
7700;DHT22;3892;47.794;19.126;2023-10-19T09:40:52;16.10;43.10
7700;DHT22;3892;47.794;19.126;2023-10-19T09:43:24;16.10;43.00
7700;DHT22;3892;47.794;19.126;2023-10-19T09:45:57;16.00;43.00
7700;DHT22;3892;47.794;19.126;2023-10-19T09:48:27;16.10;43.00
7700;DHT22;3892;47.794;19.126;2023-10-19T09:50:56;16.00;43.00
7700;DHT22;3892;47.794;19.126;2023-10-19T09:53:27;16.00;43.10
7700;DHT22;3892;47.794;19.126;2023-10-19T09:55:58;16.10;43.10
7700;DHT22;3892;47.794;19.126;2023-10-19T09:58:30;16.00;43.20
7700;DHT22;3892;47.794;19.126;2023-10-19T10:01:00;16.10;43.30
7700;DHT22;3892;47.794;19.126;2023-10-19T10:03:46;16.00;43.30
7700;DHT22;3892;47.794;19.126;2023-10-19T10:06:15;16.00;43.50
7700;DHT22;3892;47.794;19.126;2023-10-19T10:08:48;16.00;43.40
7700;DHT22;3892;47.794;19.126;2023-10-19T10:11:19;16.10;43.60
7700;DHT22;3892;47.794;19.126;2023-10-19T10:13:49;16.10;43.60
7700;DHT22;3892;47.794;19.126;2023-10-19T10:16:22;16.00;43.70
7700;DHT22;3892;47.794;19.126;2023-10-19T10:18:58;15.90;43.70
7700;DHT22;3892;47.794;19.126;2023-10-19T10:21:28;15.90;43.90
7700;DHT22;3892;47.794;19.126;2023-10-19T10:24:01;15.90;43.90
7700;DHT22;3892;47.794;19.126;2023-10-19T10:26:31;16.00;43.90
7700;DHT22;3892;47.794;19.126;2023-10-19T10:29:22;15.90;43.90
7700;DHT22;3892;47.794;19.126;2023-10-19T10:31:51;15.90;43.90
7700;DHT22;3892;47.794;19.126;2023-10-19T10:34:42;15.80;44.00
7700;DHT22;3892;47.794;19.126;2023-10-19T10:37:11;15.90;44.30
7700;DHT22;3892;47.794;19.126;2023-10-19T10:39:42;16.00;44.90
7700;DHT22;3892;47.794;19.126;2023-10-19T10:42:11;16.00;44.40
7700;DHT22;3892;47.794;19.126;2023-10-19T10:44:42;16.00;44.40
7700;DHT22;3892;47.794;19.126;2023-10-19T10:47:11;16.10;44.40
7700;DHT22;3892;47.794;19.126;2023-10-19T10:49:50;16.10;44.40
7700;DHT22;3892;47.794;19.126;2023-10-19T10:52:28;16.10;44.40
7700;DHT22;3892;47.794;19.126;2023-10-19T10:55:05;16.10;44.30
7700;DHT22;3892;47.794;19.126;2023-10-19T10:57:34;16.20;44.30
7700;DHT22;3892;47.794;19.126;2023-10-19T11:00:05;16.40;44.30
7700;DHT22;3892;47.794;19.126;2023-10-19T11:02:35;16.50;44.20
7700;DHT22;3892;47.794;19.126;2023-10-19T11:05:06;16.60;44.10
7700;DHT22;3892;47.794;19.126;2023-10-19T11:07:38;16.60;44.00
7700;DHT22;3892;47.794;19.126;2023-10-19T11:10:08;16.70;43.90
7700;DHT22;3892;47.794;19.126;2023-10-19T11:12:37;16.80;43.90
7700;DHT22;3892;47.794;19.126;2023-10-19T11:15:06;16.70;43.90
7700;DHT22;3892;47.794;19.126;2023-10-19T11:17:42;16.70;43.80
7700;DHT22;3892;47.794;19.126;2023-10-19T11:20:21;16.80;43.90
7700;DHT22;3892;47.794;19.126;2023-10-19T11:22:50;16.80;44.10
7700;DHT22;3892;47.794;19.126;2023-10-19T11:25:20;16.80;44.00
7700;DHT22;3892;47.794;19.126;2023-10-19T11:27:48;16.80;43.90
7700;DHT22;3892;47.794;19.126;2023-10-19T11:30:23;16.80;44.00
7700;DHT22;3892;47.794;19.126;2023-10-19T11:32:51;16.90;44.10
7700;DHT22;3892;47.794;19.126;2023-10-19T11:35:24;16.90;44.20
7700;DHT22;3892;47.794;19.126;2023-10-19T11:37:55;16.80;44.20
7700;DHT22;3892;47.794;19.126;2023-10-19T11:40:26;16.70;44.50
7700;DHT22;3892;47.794;19.126;2023-10-19T11:42:55;16.60;44.50
7700;DHT22;3892;47.794;19.126;2023-10-19T11:45:24;16.50;44.60
7700;DHT22;3892;47.794;19.126;2023-10-19T11:47:53;16.50;44.90
7700;DHT22;3892;47.794;19.126;2023-10-19T11:50:21;16.40;45.00
7700;DHT22;3892;47.794;19.126;2023-10-19T11:52:51;16.40;45.20
7700;DHT22;3892;47.794;19.126;2023-10-19T11:55:21;16.40;45.20
7700;DHT22;3892;47.794;19.126;2023-10-19T11:57:50;16.40;45.10
7700;DHT22;3892;47.794;19.126;2023-10-19T12:00:19;16.50;45.10
7700;DHT22;3892;47.794;19.126;2023-10-19T12:02:51;16.50;45.20
7700;DHT22;3892;47.794;19.126;2023-10-19T12:05:20;16.60;45.40
7700;DHT22;3892;47.794;19.126;2023-10-19T12:07:48;16.60;45.20
7700;DHT22;3892;47.794;19.126;2023-10-19T12:10:16;16.60;45.40
7700;DHT22;3892;47.794;19.126;2023-10-19T12:12:47;16.70;45.30
7700;DHT22;3892;47.794;19.126;2023-10-19T12:15:25;16.70;45.30
7700;DHT22;3892;47.794;19.126;2023-10-19T12:17:54;16.80;45.30
7700;DHT22;3892;47.794;19.126;2023-10-19T12:20:22;16.90;45.20
7700;DHT22;3892;47.794;19.126;2023-10-19T12:22:50;16.90;45.00
7700;DHT22;3892;47.794;19.126;2023-10-19T12:25:20;16.90;45.00
7700;DHT22;3892;47.794;19.126;2023-10-19T12:27:57;17.00;44.90
7700;DHT22;3892;47.794;19.126;2023-10-19T12:30:27;17.00;45.00
7700;DHT22;3892;47.794;19.126;2023-10-19T12:33:00;17.00;44.90
7700;DHT22;3892;47.794;19.126;2023-10-19T12:35:28;17.00;44.80
7700;DHT22;3892;47.794;19.126;2023-10-19T12:38:11;17.10;44.90
7700;DHT22;3892;47.794;19.126;2023-10-19T12:40:47;17.00;44.90
7700;DHT22;3892;47.794;19.126;2023-10-19T12:43:15;17.10;45.00
7700;DHT22;3892;47.794;19.126;2023-10-19T12:45:46;17.00;45.00
7700;DHT22;3892;47.794;19.126;2023-10-19T12:48:20;17.10;45.00
7700;DHT22;3892;47.794;19.126;2023-10-19T12:50:48;17.10;45.00
7700;DHT22;3892;47.794;19.126;2023-10-19T12:53:16;17.10;45.30
7700;DHT22;3892;47.794;19.126;2023-10-19T12:55:44;17.10;45.30
7700;DHT22;3892;47.794;19.126;2023-10-19T12:58:13;17.20;45.10
7700;DHT22;3892;47.794;19.126;2023-10-19T13:00:47;17.20;45.20
7700;DHT22;3892;47.794;19.126;2023-10-19T13:03:16;17.30;45.20
7700;DHT22;3892;47.794;19.126;2023-10-19T13:05:45;17.30;45.00
7700;DHT22;3892;47.794;19.126;2023-10-19T13:08:14;17.40;45.00
7700;DHT22;3892;47.794;19.126;2023-10-19T13:10:43;17.40;45.10
7700;DHT22;3892;47.794;19.126;2023-10-19T13:13:13;17.50;45.10
7700;DHT22;3892;47.794;19.126;2023-10-19T13:15:43;17.50;45.30
7700;DHT22;3892;47.794;19.126;2023-10-19T13:18:13;17.40;45.30
7700;DHT22;3892;47.794;19.126;2023-10-19T13:20:47;17.40;45.10
7700;DHT22;3892;47.794;19.126;2023-10-19T13:23:15;17.40;45.20
7700;DHT22;3892;47.794;19.126;2023-10-19T13:25:43;17.50;45.10
7700;DHT22;3892;47.794;19.126;2023-10-19T13:28:17;17.50;45.30
7700;DHT22;3892;47.794;19.126;2023-10-19T13:30:47;17.50;45.50
7700;DHT22;3892;47.794;19.126;2023-10-19T13:33:17;17.50;45.40
7700;DHT22;3892;47.794;19.126;2023-10-19T13:35:48;17.60;45.40
7700;DHT22;3892;47.794;19.126;2023-10-19T13:38:17;17.60;45.40
7700;DHT22;3892;47.794;19.126;2023-10-19T13:40:47;17.60;45.40
7700;DHT22;3892;47.794;19.126;2023-10-19T13:43:18;17.60;45.50
7700;DHT22;3892;47.794;19.126;2023-10-19T13:45:48;17.60;45.50
7700;DHT22;3892;47.794;19.126;2023-10-19T13:48:21;17.70;45.40
7700;DHT22;3892;47.794;19.126;2023-10-19T13:50:49;17.70;45.50
7700;DHT22;3892;47.794;19.126;2023-10-19T13:53:20;17.60;45.60
7700;DHT22;3892;47.794;19.126;2023-10-19T13:55:48;17.70;45.40
7700;DHT22;3892;47.794;19.126;2023-10-19T13:58:16;17.70;45.30
7700;DHT22;3892;47.794;19.126;2023-10-19T14:00:44;17.80;45.40
7700;DHT22;3892;47.794;19.126;2023-10-19T14:03:12;17.80;45.70
7700;DHT22;3892;47.794;19.126;2023-10-19T14:05:43;17.80;45.50
7700;DHT22;3892;47.794;19.126;2023-10-19T14:08:15;17.80;45.50
7700;DHT22;3892;47.794;19.126;2023-10-19T14:10:44;17.80;45.50
7700;DHT22;3892;47.794;19.126;2023-10-19T14:13:12;17.80;45.50
7700;DHT22;3892;47.794;19.126;2023-10-19T14:15:41;17.90;45.70
7700;DHT22;3892;47.794;19.126;2023-10-19T14:18:10;17.90;45.60
7700;DHT22;3892;47.794;19.126;2023-10-19T14:20:38;17.90;45.70
7700;DHT22;3892;47.794;19.126;2023-10-19T14:23:08;17.90;45.60
7700;DHT22;3892;47.794;19.126;2023-10-19T14:25:38;17.90;45.70
7700;DHT22;3892;47.794;19.126;2023-10-19T14:28:07;17.90;45.80
7700;DHT22;3892;47.794;19.126;2023-10-19T14:30:36;17.90;46.00
7700;DHT22;3892;47.794;19.126;2023-10-19T14:33:04;17.90;45.80
7700;DHT22;3892;47.794;19.126;2023-10-19T14:35:37;17.90;45.90
7700;DHT22;3892;47.794;19.126;2023-10-19T14:38:10;17.90;46.00
7700;DHT22;3892;47.794;19.126;2023-10-19T14:40:40;17.90;45.80
7700;DHT22;3892;47.794;19.126;2023-10-19T14:43:11;17.90;45.80
7700;DHT22;3892;47.794;19.126;2023-10-19T14:45:40;18.00;45.70
7700;DHT22;3892;47.794;19.126;2023-10-19T14:48:08;17.90;45.00
7700;DHT22;3892;47.794;19.126;2023-10-19T14:50:37;17.90;44.80
7700;DHT22;3892;47.794;19.126;2023-10-19T14:53:06;17.90;44.70
7700;DHT22;3892;47.794;19.126;2023-10-19T14:55:36;17.90;44.60
7700;DHT22;3892;47.794;19.126;2023-10-19T14:58:05;17.90;44.40
7700;DHT22;3892;47.794;19.126;2023-10-19T15:00:34;17.80;44.30
7700;DHT22;3892;47.794;19.126;2023-10-19T15:03:05;17.80;44.20
7700;DHT22;3892;47.794;19.126;2023-10-19T15:05:36;17.70;44.20
7700;DHT22;3892;47.794;19.126;2023-10-19T15:08:05;17.70;44.20
7700;DHT22;3892;47.794;19.126;2023-10-19T15:10:40;17.70;44.10
7700;DHT22;3892;47.794;19.126;2023-10-19T15:13:08;17.70;43.90
7700;DHT22;3892;47.794;19.126;2023-10-19T15:15:37;17.70;43.90
7700;DHT22;3892;47.794;19.126;2023-10-19T15:18:05;17.80;44.00
7700;DHT22;3892;47.794;19.126;2023-10-19T15:20:34;17.80;43.90
7700;DHT22;3892;47.794;19.126;2023-10-19T15:23:03;17.80;43.80
7700;DHT22;3892;47.794;19.126;2023-10-19T15:25:32;17.80;43.90
7700;DHT22;3892;47.794;19.126;2023-10-19T15:28:02;17.80;43.90
7700;DHT22;3892;47.794;19.126;2023-10-19T15:30:31;17.80;43.80
7700;DHT22;3892;47.794;19.126;2023-10-19T15:33:00;17.80;43.80
7700;DHT22;3892;47.794;19.126;2023-10-19T15:35:29;17.80;43.80
7700;DHT22;3892;47.794;19.126;2023-10-19T15:37:57;17.80;43.90
7700;DHT22;3892;47.794;19.126;2023-10-19T15:40:25;17.80;43.90
7700;DHT22;3892;47.794;19.126;2023-10-19T15:42:53;17.70;43.80
7700;DHT22;3892;47.794;19.126;2023-10-19T15:45:23;17.60;43.80
7700;DHT22;3892;47.794;19.126;2023-10-19T15:47:53;17.70;43.80
7700;DHT22;3892;47.794;19.126;2023-10-19T15:50:22;17.60;43.80
7700;DHT22;3892;47.794;19.126;2023-10-19T15:52:50;17.70;43.90
7700;DHT22;3892;47.794;19.126;2023-10-19T15:55:19;17.70;44.00
7700;DHT22;3892;47.794;19.126;2023-10-19T15:57:49;17.70;43.90
7700;DHT22;3892;47.794;19.126;2023-10-19T16:00:17;17.70;43.80
7700;DHT22;3892;47.794;19.126;2023-10-19T16:02:49;17.70;43.80
7700;DHT22;3892;47.794;19.126;2023-10-19T16:05:18;17.70;43.80